createdAt,value
2017-12-30T00:01:00.323Z,10.23
2017-12-30T00:03:29.764Z,14.03
2017-12-30T00:05:59.284Z,10.80
2017-12-30T00:08:28.777Z,9.80
2017-12-30T00:10:58.661Z,10.60
2017-12-30T00:13:28.196Z,9.20
2017-12-30T00:15:58.113Z,8.93
2017-12-30T00:18:27.830Z,9.80
2017-12-30T00:20:57.605Z,9.70
2017-12-30T00:23:27.310Z,10.77
2017-12-30T00:25:56.758Z,8.60
2017-12-30T00:28:26.233Z,9.23
2017-12-30T00:30:56.515Z,9.63
2017-12-30T00:33:26.050Z,11.43
2017-12-30T00:35:56.606Z,10.40
2017-12-30T00:38:26.193Z,30.77
2017-12-30T00:40:55.895Z,10.37
2017-12-30T00:43:25.366Z,9.93
2017-12-30T00:45:55.224Z,9.70
2017-12-30T00:48:25.457Z,10.70
2017-12-30T00:50:54.994Z,11.67
2017-12-30T00:53:24.771Z,11.10
2017-12-30T00:55:54.427Z,11.00
2017-12-30T00:58:23.946Z,11.77
2017-12-30T01:00:53.577Z,9.97
2017-12-30T01:03:23.259Z,10.17
2017-12-30T01:05:52.967Z,13.00
2017-12-30T01:08:22.693Z,12.07
2017-12-30T01:10:52.158Z,10.17
2017-12-30T01:13:23.554Z,10.87
2017-12-30T01:15:53.206Z,11.20
2017-12-30T01:18:23.658Z,12.50
2017-12-30T01:20:53.475Z,11.83
2017-12-30T01:23:23.143Z,11.47
2017-12-30T01:25:52.579Z,12.70
2017-12-30T01:28:22.959Z,13.30
2017-12-30T01:30:52.493Z,10.77
2017-12-30T01:33:22.251Z,12.97
2017-12-30T01:35:52.095Z,12.03
2017-12-30T01:38:21.643Z,12.47
2017-12-30T01:40:51.110Z,12.83
2017-12-30T01:43:21.111Z,11.83
2017-12-30T01:45:51.867Z,13.20
2017-12-30T01:48:21.992Z,14.13
2017-12-30T01:50:52.064Z,17.60
2017-12-30T01:53:21.780Z,16.00
2017-12-30T01:55:52.501Z,14.40
2017-12-30T01:58:22.122Z,13.10
2017-12-30T02:00:52.392Z,12.23
2017-12-30T02:03:22.087Z,13.57
2017-12-30T02:05:51.595Z,13.77
2017-12-30T02:08:21.023Z,12.50
2017-12-30T02:10:50.539Z,14.07
2017-12-30T02:13:20.046Z,15.97
2017-12-30T02:15:49.495Z,18.17
2017-12-30T02:18:19.190Z,18.60
2017-12-30T02:20:49.165Z,17.20
2017-12-30T02:23:18.769Z,16.70
2017-12-30T02:25:49.377Z,19.17
2017-12-30T02:28:19.398Z,16.70
2017-12-30T02:30:49.000Z,17.47
2017-12-30T02:33:18.711Z,17.00
2017-12-30T02:35:48.130Z,16.03
2017-12-30T02:38:18.376Z,18.70
2017-12-30T02:40:47.794Z,18.80
2017-12-30T02:43:17.318Z,17.90
2017-12-30T02:45:46.891Z,18.17
2017-12-30T02:48:16.523Z,21.00
2017-12-30T02:50:46.218Z,23.47
2017-12-30T02:53:15.729Z,22.83
2017-12-30T02:55:45.171Z,19.37
2017-12-30T02:58:14.619Z,21.17
2017-12-30T03:00:44.225Z,20.07
2017-12-30T03:03:14.453Z,19.80
2017-12-30T03:05:43.911Z,19.50
2017-12-30T03:08:13.388Z,18.13
2017-12-30T03:10:42.846Z,19.47
2017-12-30T03:13:13.394Z,19.60
2017-12-30T03:15:43.618Z,20.13
2017-12-30T03:18:13.090Z,17.30
2017-12-30T03:20:42.581Z,19.80
2017-12-30T03:23:12.045Z,25.90
2017-12-30T03:25:41.603Z,20.20
2017-12-30T03:28:12.110Z,20.43
2017-12-30T03:30:41.927Z,21.50
2017-12-30T03:33:11.575Z,21.97
2017-12-30T03:35:41.068Z,18.53
2017-12-30T03:38:10.567Z,21.30
2017-12-30T03:40:40.022Z,19.10
2017-12-30T03:43:09.561Z,17.43
2017-12-30T03:45:39.230Z,20.87
2017-12-30T03:48:08.682Z,20.90
2017-12-30T03:50:38.289Z,18.73
2017-12-30T03:53:07.797Z,18.00
2017-12-30T03:55:37.280Z,19.50
2017-12-30T03:58:06.725Z,25.07
2017-12-30T04:00:36.953Z,20.83
2017-12-30T04:03:06.412Z,22.60
2017-12-30T04:05:36.103Z,19.53
2017-12-30T04:08:05.559Z,20.80
2017-12-30T04:10:35.279Z,25.00
2017-12-30T04:13:05.473Z,21.47
2017-12-30T04:15:35.231Z,25.23
2017-12-30T04:18:06.265Z,21.07
2017-12-30T04:20:35.685Z,23.37
2017-12-30T04:23:05.137Z,24.57
2017-12-30T04:25:36.282Z,25.60
2017-12-30T04:28:05.807Z,21.43
2017-12-30T04:30:35.629Z,21.37
2017-12-30T04:33:05.286Z,22.53
2017-12-30T04:35:34.862Z,23.73
2017-12-30T04:38:04.302Z,24.50
2017-12-30T04:40:35.425Z,21.87
2017-12-30T04:43:05.211Z,21.90
2017-12-30T04:45:34.677Z,22.60
2017-12-30T04:48:04.356Z,25.67
2017-12-30T04:50:34.065Z,20.87
2017-12-30T04:53:03.598Z,27.40
2017-12-30T04:55:33.087Z,22.60
2017-12-30T04:58:02.602Z,25.70
2017-12-30T05:00:32.294Z,20.43
2017-12-30T05:03:02.032Z,28.20
2017-12-30T05:05:31.703Z,23.00
2017-12-30T05:08:01.183Z,25.90
2017-12-30T05:10:30.661Z,21.20
2017-12-30T05:13:00.133Z,25.10
2017-12-30T05:15:29.656Z,23.43
2017-12-30T05:17:59.126Z,23.50
2017-12-30T05:20:28.601Z,24.27
2017-12-30T05:22:58.726Z,28.63
2017-12-30T05:25:28.226Z,24.57
2017-12-30T05:27:57.750Z,24.20
2017-12-30T05:30:28.325Z,20.33
2017-12-30T05:32:58.731Z,18.80
2017-12-30T05:35:28.189Z,20.23
2017-12-30T05:37:57.823Z,16.60
2017-12-30T05:40:27.262Z,21.80
2017-12-30T05:42:56.830Z,17.13
2017-12-30T05:45:26.483Z,23.13
2017-12-30T05:47:55.969Z,16.90
2017-12-30T05:50:26.422Z,20.93
2017-12-30T05:52:56.712Z,19.73
2017-12-30T05:55:26.131Z,11.13
2017-12-30T05:57:55.609Z,8.23
2017-12-30T06:00:25.038Z,13.53
2017-12-30T06:02:54.718Z,14.40
2017-12-30T06:05:24.130Z,12.10
2017-12-30T06:07:53.788Z,10.00
2017-12-30T06:10:23.231Z,15.50
2017-12-30T06:12:52.679Z,16.10
2017-12-30T06:15:22.146Z,20.87
2017-12-30T06:17:51.818Z,16.77
2017-12-30T06:20:21.342Z,18.43
2017-12-30T06:22:50.829Z,14.63
2017-12-30T06:25:20.318Z,19.27
2017-12-30T06:27:50.092Z,20.50
2017-12-30T06:30:19.533Z,16.63
2017-12-30T06:32:49.862Z,8.50
2017-12-30T06:35:19.571Z,12.10
2017-12-30T06:37:49.117Z,11.60
2017-12-30T06:40:18.610Z,6.60
2017-12-30T06:42:48.218Z,20.50
2017-12-30T06:45:17.757Z,14.30
2017-12-30T06:47:47.803Z,14.90
2017-12-30T06:50:17.480Z,17.90
2017-12-30T06:52:46.921Z,14.33
2017-12-30T06:55:16.369Z,10.70
2017-12-30T06:57:45.854Z,18.17
2017-12-30T07:00:15.309Z,22.53
2017-12-30T07:02:44.846Z,19.87
2017-12-30T07:05:14.691Z,29.10
2017-12-30T07:07:44.091Z,13.23
2017-12-30T07:10:13.622Z,18.13
2017-12-30T07:12:43.215Z,28.07
2017-12-30T07:15:12.845Z,26.43
2017-12-30T07:17:42.328Z,25.43
2017-12-30T07:20:11.869Z,21.40
2017-12-30T07:22:41.537Z,25.20
2017-12-30T07:25:11.181Z,17.13
2017-12-30T07:27:40.943Z,20.80
2017-12-30T07:30:10.479Z,23.40
2017-12-30T07:32:39.914Z,23.30
2017-12-30T07:35:09.390Z,29.17
2017-12-30T07:37:38.865Z,29.00
2017-12-30T07:40:09.141Z,24.30
2017-12-30T07:42:39.441Z,26.80
2017-12-30T07:45:09.110Z,25.20
2017-12-30T07:47:39.261Z,27.67
2017-12-30T07:50:08.781Z,15.57
2017-12-30T07:52:38.282Z,25.70
2017-12-30T07:55:07.721Z,28.03
2017-12-30T07:57:37.233Z,19.43
2017-12-30T08:00:07.949Z,32.33
2017-12-30T08:02:37.415Z,24.27
2017-12-30T08:05:07.098Z,23.00
2017-12-30T08:07:36.646Z,20.00
2017-12-30T08:10:06.227Z,23.60
2017-12-30T08:12:35.722Z,22.60
2017-12-30T08:15:05.423Z,17.47
2017-12-30T08:17:35.030Z,23.03
2017-12-30T08:20:04.562Z,17.90
2017-12-30T08:22:34.574Z,23.77
2017-12-30T08:25:04.038Z,27.70
2017-12-30T08:27:33.693Z,22.90
2017-12-30T08:30:03.278Z,16.60
2017-12-30T08:32:33.193Z,20.43
2017-12-30T08:35:03.184Z,16.20
2017-12-30T08:37:33.008Z,26.63
2017-12-30T08:40:02.460Z,25.30
2017-12-30T08:42:32.083Z,18.43
2017-12-30T08:45:02.551Z,23.53
2017-12-30T08:47:32.022Z,24.27
2017-12-30T08:50:01.498Z,26.70
2017-12-30T08:52:31.211Z,34.77
2017-12-30T08:55:00.718Z,25.23
2017-12-30T08:57:30.478Z,25.20
2017-12-30T09:00:00.055Z,29.80
2017-12-30T09:02:29.530Z,30.50
2017-12-30T09:04:59.065Z,24.23
2017-12-30T09:07:28.768Z,18.40
2017-12-30T09:09:59.010Z,25.17
2017-12-30T09:12:28.644Z,25.47
2017-12-30T09:14:58.380Z,26.23
2017-12-30T09:17:27.838Z,37.10
2017-12-30T09:19:57.726Z,23.13
2017-12-30T09:22:28.055Z,26.70
2017-12-30T09:24:57.573Z,20.10
2017-12-30T09:27:27.220Z,33.93
2017-12-30T09:29:56.653Z,27.80
2017-12-30T09:32:26.345Z,28.00
2017-12-30T09:34:57.368Z,29.97
2017-12-30T09:37:26.843Z,37.40
2017-12-30T09:39:56.454Z,30.80
2017-12-30T09:42:27.132Z,38.77
2017-12-30T09:44:57.559Z,34.53
2017-12-30T09:47:27.061Z,41.80
2017-12-30T09:49:56.905Z,43.63
2017-12-30T09:52:26.546Z,41.07
2017-12-30T09:54:56.378Z,33.37
2017-12-30T09:57:25.890Z,38.10
2017-12-30T09:59:56.373Z,33.43
2017-12-30T10:02:26.064Z,45.70
2017-12-30T10:04:55.631Z,25.07
2017-12-30T10:07:25.367Z,33.83
2017-12-30T10:09:54.826Z,31.20
2017-12-30T10:12:24.279Z,34.73
2017-12-30T10:14:54.659Z,26.27
2017-12-30T10:17:24.148Z,39.43
2017-12-30T10:19:53.631Z,35.57
2017-12-30T10:22:23.510Z,23.27
2017-12-30T10:24:53.005Z,24.37
2017-12-30T10:27:22.466Z,31.90
2017-12-30T10:29:52.433Z,22.77
2017-12-30T10:32:22.007Z,25.43
2017-12-30T10:34:51.518Z,30.63
2017-12-30T10:37:21.014Z,28.20
2017-12-30T10:39:51.098Z,19.93
2017-12-30T10:42:20.751Z,18.60
2017-12-30T10:44:50.352Z,25.33
2017-12-30T10:47:20.589Z,36.13
2017-12-30T10:49:50.319Z,21.77
2017-12-30T10:52:20.894Z,20.60
2017-12-30T10:54:50.821Z,20.63
2017-12-30T10:57:20.555Z,31.37
2017-12-30T10:59:50.891Z,22.33
2017-12-30T11:02:21.209Z,39.27
2017-12-30T11:04:50.720Z,27.83
2017-12-30T11:07:20.370Z,24.53
2017-12-30T11:09:50.069Z,27.73
2017-12-30T11:12:19.919Z,22.00
2017-12-30T11:14:49.394Z,14.40
2017-12-30T11:17:18.866Z,22.03
2017-12-30T11:19:48.348Z,22.63
2017-12-30T11:22:17.802Z,29.23
2017-12-30T11:24:47.283Z,29.40
2017-12-30T11:27:17.643Z,32.13
2017-12-30T11:29:47.478Z,27.10
2017-12-30T11:32:17.190Z,29.10
2017-12-30T11:34:47.102Z,31.97
2017-12-30T11:37:16.592Z,32.03
2017-12-30T11:39:47.652Z,26.00
2017-12-30T11:42:17.977Z,26.87
2017-12-30T11:44:47.500Z,25.70
2017-12-30T11:47:17.430Z,33.80
2017-12-30T11:49:47.520Z,33.30
2017-12-30T11:52:18.511Z,39.67
2017-12-30T11:54:48.106Z,57.53
2017-12-30T11:57:18.337Z,283.83
2017-12-30T11:59:48.762Z,296.63
2017-12-30T12:02:18.348Z,259.87
2017-12-30T12:04:48.063Z,226.90
2017-12-30T12:07:17.522Z,168.03
2017-12-30T12:09:47.470Z,128.33
2017-12-30T12:12:17.045Z,99.43
2017-12-30T12:14:46.554Z,68.83
2017-12-30T12:17:16.377Z,65.23
2017-12-30T12:19:45.987Z,54.70
2017-12-30T12:22:15.742Z,52.33
2017-12-30T12:24:45.527Z,48.83
2017-12-30T12:27:15.103Z,50.70
2017-12-30T12:29:44.800Z,44.27
2017-12-30T12:32:14.529Z,36.47
2017-12-30T12:34:44.501Z,35.40
2017-12-30T12:37:14.265Z,40.37
2017-12-30T12:39:44.006Z,32.83
2017-12-30T12:42:13.796Z,30.30
2017-12-30T12:44:43.339Z,29.90
2017-12-30T12:47:12.907Z,33.13
2017-12-30T12:49:42.646Z,25.60
2017-12-30T12:52:12.327Z,26.27
2017-12-30T12:54:41.917Z,24.80
2017-12-30T12:57:12.187Z,28.27
2017-12-30T12:59:41.777Z,23.27
2017-12-30T13:02:12.259Z,31.07
2017-12-30T13:04:42.260Z,22.17
2017-12-30T13:07:11.927Z,25.87
2017-12-30T13:09:42.485Z,20.43
2017-12-30T13:12:12.246Z,17.10
2017-12-30T13:14:42.113Z,28.40
2017-12-30T13:17:11.582Z,15.33
2017-12-30T13:19:41.339Z,16.30
2017-12-30T13:22:11.027Z,15.20
2017-12-30T13:24:40.993Z,15.20
2017-12-30T13:27:10.789Z,20.40
2017-12-30T13:29:40.528Z,11.70
2017-12-30T13:32:10.271Z,12.77
2017-12-30T13:34:39.806Z,15.27
2017-12-30T13:37:09.358Z,11.37
2017-12-30T13:39:39.391Z,12.40
2017-12-30T13:42:09.177Z,11.83
2017-12-30T13:44:38.790Z,12.30
2017-12-30T13:47:09.298Z,12.13
2017-12-30T13:49:39.210Z,13.60
2017-12-30T13:52:08.970Z,12.40
2017-12-30T13:54:38.643Z,11.93
2017-12-30T13:57:08.970Z,10.53
2017-12-30T13:59:38.732Z,9.20
2017-12-30T14:02:08.541Z,10.13
2017-12-30T14:04:38.323Z,12.03
2017-12-30T14:07:09.351Z,9.50
2017-12-30T14:09:38.918Z,7.70
2017-12-30T14:12:08.718Z,7.30
2017-12-30T14:14:38.217Z,12.50
2017-12-30T14:17:07.899Z,6.23
2017-12-30T14:19:37.798Z,7.87
2017-12-30T14:22:08.763Z,7.80
2017-12-30T14:24:38.463Z,6.10
2017-12-30T14:27:08.221Z,6.80
2017-12-30T14:29:37.713Z,5.60
2017-12-30T14:32:07.372Z,6.13
2017-12-30T14:34:38.116Z,7.00
2017-12-30T14:37:07.974Z,6.67
2017-12-30T14:39:37.799Z,5.77
2017-12-30T14:42:07.589Z,5.83
2017-12-30T14:44:37.148Z,6.17
2017-12-30T14:47:07.599Z,6.17
2017-12-30T14:49:37.224Z,5.70
2017-12-30T14:52:07.079Z,5.57
2017-12-30T14:54:36.778Z,7.10
2017-12-30T14:57:06.628Z,7.43
2017-12-30T14:59:36.491Z,5.60
2017-12-30T15:02:06.227Z,5.90
2017-12-30T15:04:36.261Z,5.70
2017-12-30T15:07:07.280Z,8.70
2017-12-30T15:09:38.200Z,8.50
2017-12-30T15:12:07.895Z,5.63
2017-12-30T15:14:37.579Z,6.80
2017-12-30T15:17:07.107Z,6.23
2017-12-30T15:19:37.029Z,5.73
2017-12-30T15:22:06.827Z,6.23
2017-12-30T15:24:36.652Z,5.83
2017-12-30T15:27:06.477Z,6.13
2017-12-30T15:29:36.071Z,6.57
2017-12-30T15:32:22.095Z,6.27
2017-12-30T15:34:58.784Z,7.20
2017-12-30T15:37:29.036Z,6.87
2017-12-30T15:39:58.843Z,7.37
2017-12-30T15:42:28.402Z,6.50
2017-12-30T15:44:58.006Z,7.87
2017-12-30T15:47:27.569Z,9.93
2017-12-30T15:49:57.019Z,7.60
2017-12-30T15:52:26.875Z,6.60
2017-12-30T15:54:56.655Z,6.37
2017-12-30T15:57:27.305Z,6.47
2017-12-30T15:59:57.074Z,6.13
2017-12-30T16:02:27.787Z,7.40
2017-12-30T16:04:58.015Z,6.33
2017-12-30T16:07:27.931Z,9.00
2017-12-30T16:09:58.411Z,6.70
2017-12-30T16:12:29.030Z,7.00
2017-12-30T16:14:58.764Z,6.90
2017-12-30T16:17:28.923Z,7.87
2017-12-30T16:19:58.916Z,7.77
2017-12-30T16:22:28.628Z,6.60
2017-12-30T16:24:58.357Z,7.13
2017-12-30T16:27:27.952Z,6.43
2017-12-30T16:29:58.046Z,7.77
2017-12-30T16:32:27.871Z,6.47
2017-12-30T16:34:57.669Z,6.53
2017-12-30T16:37:27.349Z,5.73
2017-12-30T16:39:56.943Z,6.20
2017-12-30T16:42:26.624Z,5.77
2017-12-30T16:44:56.325Z,6.97
2017-12-30T16:47:26.121Z,6.77
2017-12-30T16:49:55.910Z,7.10
2017-12-30T16:52:26.506Z,7.17
2017-12-30T16:54:56.271Z,7.37
2017-12-30T16:57:26.313Z,7.07
2017-12-30T16:59:55.846Z,6.37
2017-12-30T17:02:25.604Z,6.57
2017-12-30T17:04:55.515Z,5.50
2017-12-30T17:07:25.209Z,6.40
2017-12-30T17:09:55.565Z,6.27
2017-12-30T17:12:25.230Z,6.93
2017-12-30T17:14:56.023Z,7.83
2017-12-30T17:17:25.733Z,6.97
2017-12-30T17:19:55.483Z,5.77
2017-12-30T17:22:25.052Z,5.70
2017-12-30T17:24:54.569Z,7.27
2017-12-30T17:27:24.305Z,7.70
2017-12-30T17:29:55.073Z,7.20
2017-12-30T17:32:24.659Z,7.50
2017-12-30T17:34:54.710Z,8.00
2017-12-30T17:37:24.794Z,7.63
2017-12-30T17:39:55.314Z,8.30
2017-12-30T17:42:25.877Z,7.53
2017-12-30T17:44:55.593Z,7.70
2017-12-30T17:47:25.162Z,8.20
2017-12-30T17:49:54.995Z,7.40
2017-12-30T17:52:24.709Z,7.63
2017-12-30T17:54:54.269Z,8.80
2017-12-30T17:58:37.457Z,8.03
2017-12-30T18:01:07.449Z,8.20
2017-12-30T18:03:36.958Z,7.80
2017-12-30T18:06:06.944Z,9.13
2017-12-30T18:11:18.073Z,8.33
2017-12-30T18:13:47.964Z,10.83
2017-12-30T18:16:18.328Z,12.50
2017-12-30T18:18:48.051Z,7.90
2017-12-30T18:21:17.876Z,9.90
2017-12-30T18:23:48.469Z,9.13
2017-12-30T18:26:18.412Z,8.90
2017-12-30T18:28:48.095Z,9.37
2017-12-30T18:31:17.881Z,10.40
2017-12-30T18:33:47.763Z,10.40
2017-12-30T18:36:18.085Z,10.17
2017-12-30T18:38:47.854Z,9.47
2017-12-30T18:41:17.443Z,11.00
2017-12-30T18:43:47.398Z,10.63
2017-12-30T18:46:17.321Z,10.77
2017-12-30T18:48:46.868Z,10.90
2017-12-30T18:51:16.849Z,10.97
2017-12-30T18:53:46.493Z,10.57
2017-12-30T18:56:16.194Z,11.07
2017-12-30T19:02:18.143Z,13.60
2017-12-30T19:04:48.037Z,11.13
2017-12-30T19:07:17.873Z,13.60
2017-12-30T19:09:48.171Z,11.50
2017-12-30T19:12:17.776Z,13.03
2017-12-30T19:14:47.652Z,13.90
2017-12-30T19:17:17.282Z,16.10
2017-12-30T19:19:47.000Z,16.00
2017-12-30T19:22:16.764Z,14.27
2017-12-30T19:24:47.138Z,14.07
2017-12-30T19:27:16.935Z,16.63
2017-12-30T19:29:46.870Z,16.47
2017-12-30T19:32:16.710Z,17.30
2017-12-30T19:34:46.713Z,16.90
2017-12-30T19:37:16.534Z,18.00
2017-12-30T19:39:46.337Z,19.83
2017-12-30T19:42:16.068Z,19.40
2017-12-30T19:44:47.168Z,21.47
2017-12-30T19:47:16.878Z,19.27
2017-12-30T19:49:46.522Z,22.43
2017-12-30T19:52:16.270Z,20.10
2017-12-30T19:54:46.751Z,19.90
2017-12-30T19:57:16.496Z,20.90
2017-12-30T19:59:46.542Z,22.43
2017-12-30T20:02:17.167Z,20.20
2017-12-30T20:04:46.901Z,23.77
2017-12-30T20:07:16.667Z,25.10
2017-12-30T20:09:47.249Z,25.73
2017-12-30T20:12:16.828Z,27.77
2017-12-30T20:14:46.653Z,25.77
2017-12-30T20:17:17.212Z,25.50
2017-12-30T20:19:47.725Z,25.50
2017-12-30T20:22:17.521Z,26.27
2017-12-30T20:24:47.573Z,27.90
2017-12-30T20:27:17.356Z,28.90
2017-12-30T20:29:47.387Z,27.13
2017-12-30T20:32:17.431Z,29.70
2017-12-30T20:34:47.413Z,29.27
2017-12-30T20:37:17.368Z,30.30
2017-12-30T20:39:47.248Z,34.07
2017-12-30T20:42:17.122Z,28.37
2017-12-30T20:44:47.683Z,25.83
2017-12-30T20:47:17.367Z,29.80
2017-12-30T20:49:46.987Z,28.53
2017-12-30T20:52:16.791Z,28.83
2017-12-30T20:54:46.515Z,28.53
2017-12-30T20:57:16.369Z,29.83
2017-12-30T20:59:46.026Z,31.13
2017-12-30T21:02:15.602Z,28.23
2017-12-30T21:04:45.589Z,34.70
2017-12-30T21:07:15.344Z,29.63
2017-12-30T21:09:45.743Z,28.83
2017-12-30T21:12:15.441Z,28.20
2017-12-30T21:14:45.306Z,24.63
2017-12-30T21:17:15.126Z,29.27
2017-12-30T21:19:44.766Z,27.10
2017-12-30T21:22:14.442Z,23.97
2017-12-30T21:24:44.492Z,29.43
2017-12-30T21:27:14.114Z,24.13
2017-12-30T21:29:44.066Z,29.20
2017-12-30T21:32:14.177Z,27.30
2017-12-30T21:34:45.027Z,26.00
2017-12-30T21:37:14.687Z,33.10
2017-12-30T21:39:44.472Z,22.40
2017-12-30T21:42:13.998Z,26.83
2017-12-30T21:44:44.110Z,32.80
2017-12-30T21:47:13.800Z,25.07
2017-12-30T21:49:43.556Z,25.30
2017-12-30T21:52:13.258Z,23.07
2017-12-30T21:54:43.188Z,22.50
2017-12-30T21:57:12.778Z,25.40
2017-12-30T21:59:42.479Z,21.40
2017-12-30T22:02:12.511Z,26.40
2017-12-30T22:04:42.553Z,24.77
2017-12-30T22:07:13.011Z,26.60
2017-12-30T22:09:42.664Z,18.87
2017-12-30T22:12:12.380Z,22.10
2017-12-30T22:14:42.137Z,28.20
2017-12-30T22:17:12.320Z,23.43
2017-12-30T22:19:42.713Z,19.67
2017-12-30T22:22:12.424Z,25.67
2017-12-30T22:24:42.324Z,22.40
2017-12-30T22:27:12.102Z,20.80
2017-12-30T22:29:41.810Z,19.93
2017-12-30T22:32:11.537Z,28.37
2017-12-30T22:34:41.359Z,22.77
2017-12-30T22:37:11.167Z,26.70
2017-12-30T22:39:42.273Z,26.03
2017-12-30T22:42:11.871Z,21.07
2017-12-30T22:44:41.870Z,24.20
2017-12-30T22:47:11.765Z,30.70
2017-12-30T22:49:41.559Z,30.77
2017-12-30T22:52:11.437Z,25.57
2017-12-30T22:54:41.589Z,27.53
2017-12-30T22:57:12.339Z,28.90
2017-12-30T22:59:42.046Z,28.17
2017-12-30T23:02:11.903Z,29.90
2017-12-30T23:04:46.862Z,28.70
2017-12-30T23:07:17.316Z,29.87
2017-12-30T23:09:47.168Z,24.60
2017-12-30T23:12:17.863Z,29.00
2017-12-30T23:14:47.823Z,27.17
2017-12-30T23:17:17.460Z,25.90
2017-12-30T23:19:47.414Z,26.20
2017-12-30T23:22:16.981Z,30.40
2017-12-30T23:24:46.797Z,27.97
2017-12-30T23:27:16.399Z,26.30
2017-12-30T23:29:46.011Z,24.80
2017-12-30T23:32:15.574Z,23.53
2017-12-30T23:34:45.252Z,29.73
2017-12-30T23:37:15.180Z,28.00
2017-12-30T23:39:45.180Z,28.43
2017-12-30T23:42:15.054Z,24.47
2017-12-30T23:44:44.502Z,25.00
2017-12-30T23:47:15.774Z,19.80
2017-12-30T23:49:45.390Z,28.30
2017-12-30T23:52:14.908Z,26.33
2017-12-30T23:54:44.707Z,25.37
2017-12-30T23:57:15.972Z,24.27
2017-12-30T23:59:45.526Z,27.33
